VOE6GV LFRB-LIEO
Flight info
| Callsign | VOE6GV |
|---|---|
| Flight time | 1h 46m |
| Altitude | 39000 |
| Route | ROSPO DCT ADSET UT499 NTS UM616 LUGEN UM184 TUPAR DCT MAKOX DCT FJR Y25 SALIN Y341 BULTO UY342 PADKO DCT LOKDU Z154 AJO A9 CORSI |
| Aircraft | A319/M-SDE3FGHIRWY/LB1 |
Departure
| Time | 2026-04-21 07:30 |
|---|---|
| Airport | Brest Bretagne airport (LFRB) |
Arrival
| Time | 2026-04-21 09:16 |
|---|---|
| Airport | Olbia Costa Smeralda Airport (LIEO) |
| Time | Latitude | Longitude | Altitude | Speed | Heading |
|---|---|---|---|---|---|
| 2026-04-21 06:54 | 48.44406 | -4.42142 | 332 ft | 0 kts | 140° |
| 2026-04-21 07:22 | 48.44418 | -4.42158 | 332 ft | 3 kts | 134° |
| 2026-04-21 07:22 | 48.44431 | -4.42181 | 327 ft | 3 kts | 109° |
| 2026-04-21 07:23 | 48.44432 | -4.42207 | 327 ft | 3 kts | 47° |
| 2026-04-21 07:23 | 48.44430 | -4.42211 | 327 ft | 0 kts | 41° |
| 2026-04-21 07:25 | 48.44433 | -4.42207 | 327 ft | 3 kts | 41° |
| 2026-04-21 07:25 | 48.44461 | -4.42170 | 329 ft | 7 kts | 41° |
| 2026-04-21 07:25 | 48.44501 | -4.42117 | 331 ft | 8 kts | 41° |
| 2026-04-21 07:25 | 48.44554 | -4.42097 | 331 ft | 7 kts | 352° |
| 2026-04-21 07:26 | 48.44605 | -4.42122 | 332 ft | 8 kts | 341° |
| 2026-04-21 07:26 | 48.44666 | -4.42153 | 331 ft | 10 kts | 341° |
| 2026-04-21 07:26 | 48.44691 | -4.42266 | 324 ft | 16 kts | 254° |
| 2026-04-21 07:26 | 48.44648 | -4.42461 | 315 ft | 22 kts | 251° |
| 2026-04-21 07:27 | 48.44594 | -4.42699 | 306 ft | 26 kts | 251° |
| 2026-04-21 07:27 | 48.44532 | -4.42970 | 301 ft | 28 kts | 250° |
| 2026-04-21 07:27 | 48.44467 | -4.43257 | 302 ft | 28 kts | 252° |
| 2026-04-21 07:27 | 48.44408 | -4.43523 | 302 ft | 18 kts | 251° |
| 2026-04-21 07:28 | 48.44375 | -4.43668 | 300 ft | 14 kts | 251° |
| 2026-04-21 07:28 | 48.44374 | -4.43766 | 298 ft | 9 kts | 281° |
| 2026-04-21 07:28 | 48.44365 | -4.43829 | 298 ft | 7 kts | 212° |
| 2026-04-21 07:28 | 48.44348 | -4.43785 | 296 ft | 5 kts | 78° |
| 2026-04-21 07:29 | 48.44358 | -4.43745 | 298 ft | 3 kts | 71° |
| 2026-04-21 07:29 | 48.44365 | -4.43712 | 300 ft | 9 kts | 72° |
| 2026-04-21 07:29 | 48.44474 | -4.43230 | 301 ft | 88 kts | 71° |
| 2026-04-21 07:29 | 48.44741 | -4.42055 | 361 ft | 142 kts | 71° |
| 2026-04-21 07:30 | 48.44951 | -4.41123 | 804 ft | 143 kts | 72° |
| 2026-04-21 07:30 | 48.45257 | -4.39675 | 1611 ft | 147 kts | 78° |
| 2026-04-21 07:30 | 48.44953 | -4.38208 | 2285 ft | 165 kts | 126° |
| 2026-04-21 07:30 | 48.44009 | -4.36979 | 2755 ft | 192 kts | 133° |
| 2026-04-21 07:31 | 48.42969 | -4.35537 | 3328 ft | 216 kts | 132° |
| 2026-04-21 07:31 | 48.41972 | -4.34086 | 3920 ft | 237 kts | 132° |
| 2026-04-21 07:31 | 48.40780 | -4.32286 | 4793 ft | 248 kts | 131° |
| 2026-04-21 07:31 | 48.39737 | -4.30189 | 5749 ft | 253 kts | 122° |
| 2026-04-21 07:32 | 48.38752 | -4.27957 | 6759 ft | 258 kts | 121° |
| 2026-04-21 07:32 | 48.37740 | -4.25641 | 7695 ft | 265 kts | 122° |
| 2026-04-21 07:32 | 48.36719 | -4.23302 | 8607 ft | 271 kts | 123° |
| 2026-04-21 07:32 | 48.35679 | -4.20927 | 9522 ft | 278 kts | 123° |
| 2026-04-21 07:33 | 48.34586 | -4.18433 | 10371 ft | 288 kts | 124° |
| 2026-04-21 07:33 | 48.33438 | -4.15823 | 10772 ft | 312 kts | 124° |
| 2026-04-21 07:33 | 48.32196 | -4.13001 | 11117 ft | 335 kts | 124° |
| 2026-04-21 07:33 | 48.30891 | -4.10034 | 11745 ft | 345 kts | 123° |
| 2026-04-21 07:34 | 48.29548 | -4.06987 | 12495 ft | 353 kts | 123° |
| 2026-04-21 07:34 | 48.28183 | -4.03893 | 13253 ft | 359 kts | 123° |
| 2026-04-21 07:34 | 48.26789 | -4.00742 | 13989 ft | 366 kts | 123° |
| 2026-04-21 07:34 | 48.25368 | -3.97535 | 14646 ft | 372 kts | 124° |
| 2026-04-21 07:35 | 48.23922 | -3.94281 | 15277 ft | 379 kts | 124° |
| 2026-04-21 07:35 | 48.22447 | -3.90965 | 15912 ft | 385 kts | 125° |
| 2026-04-21 07:35 | 48.20952 | -3.87610 | 16599 ft | 390 kts | 125° |
| 2026-04-21 07:35 | 48.19437 | -3.84207 | 17276 ft | 394 kts | 125° |
| 2026-04-21 07:36 | 48.17906 | -3.80764 | 17954 ft | 399 kts | 125° |
| 2026-04-21 07:36 | 48.16358 | -3.77285 | 18590 ft | 404 kts | 125° |
| 2026-04-21 07:36 | 48.14793 | -3.73771 | 19183 ft | 408 kts | 125° |
| 2026-04-21 07:36 | 48.13210 | -3.70223 | 19774 ft | 412 kts | 125° |
| 2026-04-21 07:37 | 48.11606 | -3.66636 | 20371 ft | 416 kts | 126° |
| 2026-04-21 07:37 | 48.09988 | -3.63019 | 20958 ft | 420 kts | 126° |
| 2026-04-21 07:37 | 48.08355 | -3.59380 | 21536 ft | 424 kts | 126° |
| 2026-04-21 07:37 | 48.06698 | -3.55696 | 22091 ft | 429 kts | 126° |
| 2026-04-21 07:38 | 48.05025 | -3.51988 | 22644 ft | 432 kts | 126° |
| 2026-04-21 07:38 | 48.03332 | -3.48241 | 23171 ft | 437 kts | 126° |
| 2026-04-21 07:38 | 48.01625 | -3.44466 | 23683 ft | 441 kts | 126° |
| 2026-04-21 07:38 | 47.99901 | -3.40657 | 24116 ft | 444 kts | 126° |
| 2026-04-21 07:39 | 47.98167 | -3.36828 | 24560 ft | 447 kts | 126° |
| 2026-04-21 07:39 | 47.96417 | -3.32971 | 25011 ft | 450 kts | 126° |
| 2026-04-21 07:39 | 47.94660 | -3.29094 | 25439 ft | 453 kts | 126° |
| 2026-04-21 07:39 | 47.92894 | -3.25194 | 25873 ft | 456 kts | 126° |
| 2026-04-21 07:40 | 47.91110 | -3.21261 | 26314 ft | 458 kts | 126° |
| 2026-04-21 07:40 | 47.89316 | -3.17312 | 26745 ft | 461 kts | 126° |
| 2026-04-21 07:40 | 47.87488 | -3.13298 | 27185 ft | 464 kts | 126° |
| 2026-04-21 07:40 | 47.85693 | -3.09367 | 27604 ft | 466 kts | 126° |
| 2026-04-21 07:41 | 47.83839 | -3.05320 | 28014 ft | 469 kts | 126° |
| 2026-04-21 07:41 | 47.81993 | -3.01298 | 28427 ft | 472 kts | 126° |
| 2026-04-21 07:41 | 47.80135 | -2.97261 | 28823 ft | 474 kts | 126° |
| 2026-04-21 07:41 | 47.78269 | -2.93212 | 29206 ft | 476 kts | 126° |
| 2026-04-21 07:42 | 47.76389 | -2.89135 | 29588 ft | 479 kts | 126° |
| 2026-04-21 07:42 | 47.74503 | -2.85043 | 29968 ft | 481 kts | 126° |
| 2026-04-21 07:42 | 47.72604 | -2.80934 | 30302 ft | 484 kts | 126° |
| 2026-04-21 07:42 | 47.70696 | -2.76808 | 30614 ft | 486 kts | 126° |
| 2026-04-21 07:43 | 47.68777 | -2.72666 | 30947 ft | 487 kts | 126° |
| 2026-04-21 07:43 | 47.66856 | -2.68523 | 31385 ft | 486 kts | 126° |
| 2026-04-21 07:43 | 47.64940 | -2.64398 | 31826 ft | 485 kts | 126° |
| 2026-04-21 07:43 | 47.63030 | -2.60291 | 32279 ft | 484 kts | 126° |
| 2026-04-21 07:44 | 47.61117 | -2.56186 | 32720 ft | 483 kts | 126° |
| 2026-04-21 07:44 | 47.59210 | -2.52096 | 33176 ft | 482 kts | 126° |
| 2026-04-21 07:44 | 47.57305 | -2.48017 | 33626 ft | 481 kts | 126° |
| 2026-04-21 07:44 | 47.55401 | -2.43947 | 34085 ft | 480 kts | 126° |
| 2026-04-21 07:45 | 47.53496 | -2.39892 | 34482 ft | 479 kts | 126° |
| 2026-04-21 07:45 | 47.51591 | -2.35846 | 34854 ft | 479 kts | 126° |
| 2026-04-21 07:45 | 47.49684 | -2.31802 | 35221 ft | 479 kts | 126° |
| 2026-04-21 07:45 | 47.47780 | -2.27765 | 35564 ft | 479 kts | 126° |
| 2026-04-21 07:46 | 47.45875 | -2.23726 | 35903 ft | 479 kts | 126° |
| 2026-04-21 07:46 | 47.43976 | -2.19697 | 36225 ft | 479 kts | 126° |
| 2026-04-21 07:46 | 47.42068 | -2.15657 | 36542 ft | 479 kts | 126° |
| 2026-04-21 07:46 | 47.40164 | -2.11632 | 36845 ft | 479 kts | 126° |
| 2026-04-21 07:47 | 47.38255 | -2.07606 | 37145 ft | 479 kts | 127° |
| 2026-04-21 07:47 | 47.36346 | -2.03581 | 37435 ft | 479 kts | 127° |
| 2026-04-21 07:47 | 47.34432 | -1.99559 | 37719 ft | 479 kts | 127° |
| 2026-04-21 07:47 | 47.32516 | -1.95542 | 38002 ft | 479 kts | 127° |
| 2026-04-21 07:48 | 47.30601 | -1.91534 | 38278 ft | 479 kts | 127° |
| 2026-04-21 07:48 | 47.28679 | -1.87517 | 38543 ft | 479 kts | 127° |
| 2026-04-21 07:48 | 47.26754 | -1.83498 | 38790 ft | 480 kts | 127° |
| 2026-04-21 07:48 | 47.24811 | -1.79440 | 38983 ft | 480 kts | 127° |
| 2026-04-21 07:49 | 47.20961 | -1.71405 | 39082 ft | 480 kts | 127° |
| 2026-04-21 07:49 | 47.17096 | -1.63424 | 39081 ft | 479 kts | 130° |
| 2026-04-21 07:50 | 47.12442 | -1.56520 | 39082 ft | 475 kts | 141° |
| 2026-04-21 07:50 | 47.07516 | -1.50053 | 39084 ft | 475 kts | 141° |
| 2026-04-21 07:51 | 47.02597 | -1.43575 | 39078 ft | 475 kts | 141° |
| 2026-04-21 07:51 | 46.97662 | -1.37112 | 39073 ft | 476 kts | 141° |
| 2026-04-21 07:52 | 46.92723 | -1.30662 | 39062 ft | 476 kts | 141° |
| 2026-04-21 07:52 | 46.87781 | -1.24215 | 39061 ft | 476 kts | 141° |
| 2026-04-21 07:53 | 46.82834 | -1.17770 | 39060 ft | 477 kts | 141° |
| 2026-04-21 07:53 | 46.77883 | -1.11334 | 39060 ft | 477 kts | 141° |
| 2026-04-21 07:54 | 46.72919 | -1.04909 | 39060 ft | 477 kts | 141° |
| 2026-04-21 07:54 | 46.67955 | -0.98493 | 39059 ft | 477 kts | 141° |
| 2026-04-21 07:55 | 46.62989 | -0.92091 | 39054 ft | 477 kts | 141° |
| 2026-04-21 07:55 | 46.58013 | -0.85708 | 39048 ft | 477 kts | 141° |
| 2026-04-21 07:56 | 46.53038 | -0.79316 | 39047 ft | 477 kts | 141° |
| 2026-04-21 07:56 | 46.48036 | -0.72861 | 39045 ft | 478 kts | 141° |
| 2026-04-21 07:57 | 46.43112 | -0.66407 | 39043 ft | 479 kts | 136° |
| 2026-04-21 07:57 | 46.38825 | -0.58967 | 39045 ft | 481 kts | 131° |
| 2026-04-21 07:58 | 46.34620 | -0.51432 | 39041 ft | 481 kts | 131° |
| 2026-04-21 07:58 | 46.30403 | -0.43910 | 39039 ft | 482 kts | 131° |
| 2026-04-21 07:59 | 46.26179 | -0.36394 | 39037 ft | 482 kts | 131° |
| 2026-04-21 07:59 | 46.21939 | -0.28886 | 39037 ft | 482 kts | 131° |
| 2026-04-21 08:00 | 46.17698 | -0.21388 | 39033 ft | 482 kts | 131° |
| 2026-04-21 08:00 | 46.13457 | -0.13894 | 39032 ft | 482 kts | 131° |
| 2026-04-21 08:01 | 46.09208 | -0.06410 | 39026 ft | 483 kts | 131° |
| 2026-04-21 08:02 | 46.02800 | 0.04793 | 39017 ft | 483 kts | 131° |
| 2026-04-21 08:02 | 45.98517 | 0.12254 | 39009 ft | 484 kts | 131° |
| 2026-04-21 08:03 | 45.94231 | 0.19724 | 39009 ft | 484 kts | 131° |
| 2026-04-21 08:03 | 45.90641 | 0.25968 | 39012 ft | 484 kts | 131° |
| 2026-04-21 08:04 | 45.85651 | 0.34625 | 39012 ft | 484 kts | 131° |
| 2026-04-21 08:04 | 45.82050 | 0.40843 | 39010 ft | 484 kts | 132° |
| 2026-04-21 08:05 | 45.77743 | 0.48275 | 39010 ft | 484 kts | 131° |
| 2026-04-21 08:05 | 45.73430 | 0.55700 | 39008 ft | 484 kts | 132° |
| 2026-04-21 08:06 | 45.69116 | 0.63097 | 39005 ft | 484 kts | 132° |
| 2026-04-21 08:06 | 45.64791 | 0.70482 | 38999 ft | 484 kts | 132° |
| 2026-04-21 08:07 | 45.60459 | 0.77859 | 38998 ft | 485 kts | 132° |
| 2026-04-21 08:07 | 45.57563 | 0.82791 | 39001 ft | 485 kts | 132° |
| 2026-04-21 08:08 | 45.55546 | 0.86209 | 39000 ft | 485 kts | 132° |
| 2026-04-21 08:08 | 45.51204 | 0.93578 | 38997 ft | 485 kts | 132° |
| 2026-04-21 08:09 | 45.46868 | 1.00931 | 38994 ft | 485 kts | 132° |
| 2026-04-21 08:09 | 45.42525 | 1.08277 | 38992 ft | 485 kts | 132° |
| 2026-04-21 08:10 | 45.38172 | 1.15607 | 38992 ft | 485 kts | 132° |
| 2026-04-21 08:10 | 45.33814 | 1.22916 | 38991 ft | 485 kts | 132° |
| 2026-04-21 08:11 | 45.29400 | 1.30229 | 38989 ft | 484 kts | 133° |
| 2026-04-21 08:11 | 45.24964 | 1.37430 | 38987 ft | 484 kts | 134° |
| 2026-04-21 08:12 | 45.20521 | 1.44619 | 38984 ft | 485 kts | 133° |
| 2026-04-21 08:12 | 45.16084 | 1.51822 | 38987 ft | 485 kts | 133° |
| 2026-04-21 08:13 | 45.11650 | 1.59019 | 38989 ft | 485 kts | 133° |
| 2026-04-21 08:13 | 45.07207 | 1.66200 | 38986 ft | 485 kts | 133° |
| 2026-04-21 08:14 | 45.02756 | 1.73374 | 38988 ft | 485 kts | 133° |
| 2026-04-21 08:14 | 44.98296 | 1.80539 | 38987 ft | 486 kts | 133° |
| 2026-04-21 08:15 | 44.93832 | 1.87701 | 39002 ft | 486 kts | 134° |
| 2026-04-21 08:15 | 44.89362 | 1.94856 | 38991 ft | 486 kts | 134° |
| 2026-04-21 08:16 | 44.84895 | 2.01990 | 39011 ft | 486 kts | 134° |
| 2026-04-21 08:16 | 44.80413 | 2.09120 | 39001 ft | 486 kts | 134° |
| 2026-04-21 08:17 | 44.75931 | 2.16227 | 38992 ft | 486 kts | 134° |
| 2026-04-21 08:17 | 44.71445 | 2.23335 | 38991 ft | 486 kts | 134° |
| 2026-04-21 08:18 | 44.66954 | 2.30429 | 38994 ft | 486 kts | 134° |
| 2026-04-21 08:18 | 44.62460 | 2.37509 | 38998 ft | 485 kts | 134° |
| 2026-04-21 08:19 | 44.57933 | 2.44624 | 38996 ft | 485 kts | 134° |
| 2026-04-21 08:19 | 44.53433 | 2.51680 | 38987 ft | 485 kts | 134° |
| 2026-04-21 08:20 | 44.48930 | 2.58720 | 38979 ft | 485 kts | 134° |
| 2026-04-21 08:20 | 44.44417 | 2.65742 | 38989 ft | 485 kts | 134° |
| 2026-04-21 08:21 | 44.39904 | 2.72767 | 38992 ft | 485 kts | 134° |
| 2026-04-21 08:21 | 44.35387 | 2.79775 | 38992 ft | 485 kts | 134° |
| 2026-04-21 08:22 | 44.30857 | 2.86793 | 39006 ft | 486 kts | 134° |
| 2026-04-21 08:22 | 44.26329 | 2.93791 | 39004 ft | 486 kts | 134° |
| 2026-04-21 08:23 | 44.21787 | 3.00781 | 39009 ft | 486 kts | 134° |
| 2026-04-21 08:23 | 44.17239 | 3.07759 | 39002 ft | 486 kts | 135° |
| 2026-04-21 08:24 | 44.12691 | 3.14728 | 39000 ft | 486 kts | 135° |
| 2026-04-21 08:24 | 44.08131 | 3.21698 | 38997 ft | 486 kts | 135° |
| 2026-04-21 08:25 | 44.03577 | 3.28647 | 39005 ft | 487 kts | 135° |
| 2026-04-21 08:25 | 43.99017 | 3.35587 | 38994 ft | 486 kts | 135° |
| 2026-04-21 08:26 | 43.94453 | 3.42514 | 38990 ft | 486 kts | 135° |
| 2026-04-21 08:26 | 43.89888 | 3.49427 | 38985 ft | 486 kts | 135° |
| 2026-04-21 08:27 | 43.85315 | 3.56341 | 38986 ft | 486 kts | 135° |
| 2026-04-21 08:27 | 43.80749 | 3.63211 | 38985 ft | 486 kts | 135° |
| 2026-04-21 08:28 | 43.76167 | 3.70081 | 38985 ft | 485 kts | 135° |
| 2026-04-21 08:28 | 43.71596 | 3.76938 | 38979 ft | 485 kts | 135° |
| 2026-04-21 08:29 | 43.67014 | 3.83800 | 38977 ft | 485 kts | 135° |
| 2026-04-21 08:29 | 43.62432 | 3.90637 | 38975 ft | 485 kts | 135° |
| 2026-04-21 08:30 | 43.57989 | 3.97653 | 38974 ft | 487 kts | 127° |
| 2026-04-21 08:30 | 43.54635 | 4.05782 | 38973 ft | 489 kts | 119° |
| 2026-04-21 08:31 | 43.51451 | 4.14063 | 38973 ft | 489 kts | 119° |
| 2026-04-21 08:31 | 43.48249 | 4.22332 | 38971 ft | 489 kts | 119° |
| 2026-04-21 08:32 | 43.45041 | 4.30598 | 38969 ft | 489 kts | 119° |
| 2026-04-21 08:32 | 43.41829 | 4.38849 | 38965 ft | 489 kts | 120° |
| 2026-04-21 08:33 | 43.38604 | 4.47088 | 38966 ft | 489 kts | 120° |
| 2026-04-21 08:33 | 43.35353 | 4.55309 | 38961 ft | 490 kts | 120° |
| 2026-04-21 08:34 | 43.32079 | 4.63511 | 38958 ft | 490 kts | 120° |
| 2026-04-21 08:34 | 43.29115 | 4.71923 | 38955 ft | 491 kts | 108° |
| 2026-04-21 08:35 | 43.27857 | 4.81094 | 38951 ft | 490 kts | 92° |
| 2026-04-21 08:35 | 43.27382 | 4.90382 | 38954 ft | 490 kts | 94° |
| 2026-04-21 08:36 | 43.26779 | 4.98120 | 38956 ft | 491 kts | 96° |
| 2026-04-21 08:36 | 43.25796 | 5.07400 | 38953 ft | 492 kts | 98° |
| 2026-04-21 08:37 | 43.24792 | 5.16677 | 38958 ft | 492 kts | 97° |
| 2026-04-21 08:37 | 43.23865 | 5.25972 | 38955 ft | 492 kts | 97° |
| 2026-04-21 08:38 | 43.22139 | 5.35015 | 38956 ft | 491 kts | 115° |
| 2026-04-21 08:38 | 43.18789 | 5.43147 | 38946 ft | 490 kts | 123° |
| 2026-04-21 08:39 | 43.15246 | 5.51118 | 38945 ft | 490 kts | 123° |
| 2026-04-21 08:39 | 43.11701 | 5.59099 | 38947 ft | 490 kts | 123° |
| 2026-04-21 08:40 | 43.08149 | 5.67064 | 38944 ft | 490 kts | 123° |
| 2026-04-21 08:40 | 43.04584 | 5.75010 | 38949 ft | 490 kts | 123° |
| 2026-04-21 08:41 | 43.00983 | 5.83009 | 38946 ft | 491 kts | 123° |
| 2026-04-21 08:41 | 42.97402 | 5.90940 | 38951 ft | 491 kts | 123° |
| 2026-04-21 08:42 | 42.93813 | 5.98874 | 38953 ft | 491 kts | 123° |
| 2026-04-21 08:42 | 42.90221 | 6.06795 | 38956 ft | 492 kts | 123° |
| 2026-04-21 08:43 | 42.86617 | 6.14731 | 38961 ft | 492 kts | 123° |
| 2026-04-21 08:43 | 42.83006 | 6.22653 | 38960 ft | 492 kts | 123° |
| 2026-04-21 08:44 | 42.79397 | 6.30558 | 38963 ft | 492 kts | 123° |
| 2026-04-21 08:44 | 42.75786 | 6.38465 | 38966 ft | 492 kts | 123° |
| 2026-04-21 08:45 | 42.72160 | 6.46362 | 38966 ft | 492 kts | 124° |
| 2026-04-21 08:45 | 42.68527 | 6.54242 | 38967 ft | 492 kts | 124° |
| 2026-04-21 08:46 | 42.64884 | 6.62130 | 38968 ft | 492 kts | 124° |
| 2026-04-21 08:46 | 42.61243 | 6.69997 | 38966 ft | 492 kts | 124° |
| 2026-04-21 08:47 | 42.57598 | 6.77851 | 38963 ft | 492 kts | 124° |
| 2026-04-21 08:47 | 42.53951 | 6.85691 | 38965 ft | 492 kts | 124° |
| 2026-04-21 08:48 | 42.50290 | 6.93529 | 38963 ft | 492 kts | 124° |
| 2026-04-21 08:48 | 42.46625 | 7.01365 | 38965 ft | 492 kts | 124° |
| 2026-04-21 08:49 | 42.42932 | 7.09244 | 38967 ft | 493 kts | 124° |
| 2026-04-21 08:49 | 42.39251 | 7.17077 | 38968 ft | 493 kts | 124° |
| 2026-04-21 08:50 | 42.35448 | 7.24778 | 38969 ft | 490 kts | 133° |
| 2026-04-21 08:50 | 42.30999 | 7.31765 | 38970 ft | 490 kts | 133° |
| 2026-04-21 08:51 | 42.26547 | 7.38743 | 38970 ft | 490 kts | 133° |
| 2026-04-21 08:51 | 42.22098 | 7.45716 | 38973 ft | 490 kts | 133° |
| 2026-04-21 08:52 | 42.17638 | 7.52667 | 38972 ft | 490 kts | 133° |
| 2026-04-21 08:52 | 42.13170 | 7.59622 | 38974 ft | 491 kts | 133° |
| 2026-04-21 08:53 | 42.08696 | 7.66572 | 38975 ft | 491 kts | 133° |
| 2026-04-21 08:53 | 42.04220 | 7.73528 | 38980 ft | 492 kts | 133° |
| 2026-04-21 08:54 | 41.99750 | 7.80480 | 38986 ft | 492 kts | 133° |
| 2026-04-21 08:54 | 41.95269 | 7.87428 | 38989 ft | 492 kts | 133° |
| 2026-04-21 08:55 | 41.90776 | 7.94334 | 38993 ft | 491 kts | 134° |
| 2026-04-21 08:55 | 41.86259 | 8.01248 | 38290 ft | 496 kts | 134° |
| 2026-04-21 08:55 | 41.83974 | 8.04741 | 37305 ft | 501 kts | 133° |
| 2026-04-21 08:56 | 41.81667 | 8.08266 | 36427 ft | 503 kts | 133° |
| 2026-04-21 08:56 | 41.79356 | 8.11799 | 35588 ft | 505 kts | 133° |
| 2026-04-21 08:56 | 41.77036 | 8.15340 | 34766 ft | 506 kts | 133° |
| 2026-04-21 08:56 | 41.74680 | 8.18934 | 33923 ft | 507 kts | 133° |
| 2026-04-21 08:57 | 41.72355 | 8.22480 | 32953 ft | 508 kts | 133° |
| 2026-04-21 08:57 | 41.70035 | 8.26005 | 32001 ft | 508 kts | 133° |
| 2026-04-21 08:57 | 41.67693 | 8.29554 | 31022 ft | 509 kts | 133° |
| 2026-04-21 08:57 | 41.65352 | 8.33100 | 30020 ft | 509 kts | 133° |
| 2026-04-21 08:58 | 41.63018 | 8.36636 | 29078 ft | 505 kts | 133° |
| 2026-04-21 08:58 | 41.60705 | 8.40140 | 28027 ft | 503 kts | 133° |
| 2026-04-21 08:58 | 41.58389 | 8.43646 | 27102 ft | 499 kts | 133° |
| 2026-04-21 08:58 | 41.56105 | 8.47095 | 26258 ft | 494 kts | 133° |
| 2026-04-21 08:59 | 41.53836 | 8.50509 | 25433 ft | 488 kts | 133° |
| 2026-04-21 08:59 | 41.51596 | 8.53873 | 24645 ft | 482 kts | 133° |
| 2026-04-21 08:59 | 41.49382 | 8.57202 | 23893 ft | 477 kts | 133° |
| 2026-04-21 08:59 | 41.47190 | 8.60496 | 23097 ft | 472 kts | 132° |
| 2026-04-21 09:00 | 41.45021 | 8.63754 | 22299 ft | 467 kts | 132° |
| 2026-04-21 09:00 | 41.42905 | 8.66926 | 21573 ft | 462 kts | 132° |
| 2026-04-21 09:00 | 41.40786 | 8.70097 | 20859 ft | 456 kts | 132° |
| 2026-04-21 09:00 | 41.38681 | 8.73241 | 20157 ft | 452 kts | 132° |
| 2026-04-21 09:01 | 41.36602 | 8.76344 | 19492 ft | 447 kts | 132° |
| 2026-04-21 09:01 | 41.34613 | 8.79498 | 18862 ft | 443 kts | 126° |
| 2026-04-21 09:01 | 41.33078 | 8.83019 | 18276 ft | 438 kts | 114° |
| 2026-04-21 09:01 | 41.32056 | 8.86807 | 17629 ft | 434 kts | 105° |
| 2026-04-21 09:02 | 41.31183 | 8.90638 | 17009 ft | 430 kts | 106° |
| 2026-04-21 09:02 | 41.30310 | 8.94425 | 16422 ft | 426 kts | 106° |
| 2026-04-21 09:02 | 41.29443 | 8.98166 | 15849 ft | 422 kts | 106° |
| 2026-04-21 09:03 | 41.27763 | 9.05359 | 14733 ft | 415 kts | 106° |
| 2026-04-21 09:03 | 41.26909 | 9.08998 | 14171 ft | 411 kts | 106° |
| 2026-04-21 09:03 | 41.26062 | 9.12602 | 13580 ft | 407 kts | 106° |
| 2026-04-21 09:03 | 41.25225 | 9.16174 | 12929 ft | 403 kts | 106° |
| 2026-04-21 09:04 | 41.24389 | 9.19762 | 12262 ft | 399 kts | 107° |
| 2026-04-21 09:04 | 41.23575 | 9.23262 | 11620 ft | 394 kts | 107° |
| 2026-04-21 09:04 | 41.22770 | 9.26718 | 10991 ft | 391 kts | 107° |
| 2026-04-21 09:04 | 41.21973 | 9.30114 | 10771 ft | 375 kts | 107° |
| 2026-04-21 09:05 | 41.21213 | 9.33337 | 10641 ft | 358 kts | 107° |
| 2026-04-21 09:05 | 41.20483 | 9.36424 | 10524 ft | 343 kts | 107° |
| 2026-04-21 09:05 | 41.19780 | 9.39386 | 10395 ft | 330 kts | 108° |
| 2026-04-21 09:05 | 41.19102 | 9.42245 | 10260 ft | 320 kts | 108° |
| 2026-04-21 09:06 | 41.18442 | 9.45042 | 9949 ft | 316 kts | 108° |
| 2026-04-21 09:06 | 41.17788 | 9.47809 | 9578 ft | 314 kts | 108° |
| 2026-04-21 09:06 | 41.17133 | 9.50569 | 9168 ft | 312 kts | 108° |
| 2026-04-21 09:06 | 41.16484 | 9.53303 | 8753 ft | 310 kts | 108° |
| 2026-04-21 09:07 | 41.15842 | 9.56011 | 8343 ft | 305 kts | 107° |
| 2026-04-21 09:07 | 41.15210 | 9.58672 | 7886 ft | 300 kts | 107° |
| 2026-04-21 09:07 | 41.14585 | 9.61290 | 7394 ft | 297 kts | 107° |
| 2026-04-21 09:07 | 41.13972 | 9.63849 | 7215 ft | 282 kts | 107° |
| 2026-04-21 09:08 | 41.13396 | 9.66255 | 7061 ft | 267 kts | 107° |
| 2026-04-21 09:08 | 41.12841 | 9.68576 | 6720 ft | 261 kts | 107° |
| 2026-04-21 09:08 | 41.12240 | 9.70836 | 6315 ft | 259 kts | 113° |
| 2026-04-21 09:08 | 41.11492 | 9.72998 | 5888 ft | 257 kts | 116° |
| 2026-04-21 09:09 | 41.10703 | 9.75122 | 5459 ft | 256 kts | 116° |
| 2026-04-21 09:09 | 41.09908 | 9.77219 | 5031 ft | 254 kts | 116° |
| 2026-04-21 09:09 | 41.09121 | 9.79291 | 4784 ft | 246 kts | 116° |
| 2026-04-21 09:09 | 41.08154 | 9.81080 | 4641 ft | 234 kts | 146° |
| 2026-04-21 09:10 | 41.06700 | 9.81742 | 4460 ft | 217 kts | 186° |
| 2026-04-21 09:10 | 41.05336 | 9.81126 | 4175 ft | 204 kts | 224° |
| 2026-04-21 09:10 | 41.04476 | 9.79696 | 3888 ft | 198 kts | 242° |
| 2026-04-21 09:10 | 41.03976 | 9.78657 | 3730 ft | 198 kts | 242° |
| 2026-04-21 09:11 | 41.03227 | 9.77136 | 3481 ft | 197 kts | 241° |
| 2026-04-21 09:11 | 41.02450 | 9.75644 | 3237 ft | 196 kts | 239° |
| 2026-04-21 09:11 | 41.01635 | 9.74212 | 3058 ft | 192 kts | 237° |
| 2026-04-21 09:11 | 41.00865 | 9.72828 | 3002 ft | 183 kts | 239° |
| 2026-04-21 09:12 | 41.00140 | 9.71460 | 3007 ft | 180 kts | 240° |
| 2026-04-21 09:12 | 40.99445 | 9.70133 | 3012 ft | 169 kts | 240° |
| 2026-04-21 09:12 | 40.98785 | 9.68866 | 2800 ft | 165 kts | 240° |
| 2026-04-21 09:12 | 40.98139 | 9.67625 | 2592 ft | 162 kts | 240° |
| 2026-04-21 09:13 | 40.97506 | 9.66409 | 2384 ft | 160 kts | 240° |
| 2026-04-21 09:13 | 40.96879 | 9.65205 | 2173 ft | 158 kts | 239° |
| 2026-04-21 09:13 | 40.96262 | 9.64019 | 1966 ft | 156 kts | 239° |
| 2026-04-21 09:13 | 40.95652 | 9.62849 | 1757 ft | 152 kts | 238° |
| 2026-04-21 09:14 | 40.95069 | 9.61730 | 1561 ft | 145 kts | 238° |
| 2026-04-21 09:14 | 40.94510 | 9.60658 | 1372 ft | 138 kts | 238° |
| 2026-04-21 09:14 | 40.93989 | 9.59661 | 1202 ft | 127 kts | 239° |
| 2026-04-21 09:14 | 40.93493 | 9.58712 | 1033 ft | 124 kts | 238° |
| 2026-04-21 09:15 | 40.93015 | 9.57782 | 862 ft | 121 kts | 238° |
| 2026-04-21 09:15 | 40.92547 | 9.56864 | 739 ft | 119 kts | 237° |
| 2026-04-21 09:15 | 40.92069 | 9.55972 | 551 ft | 118 kts | 238° |
| 2026-04-21 09:15 | 40.91604 | 9.55077 | 398 ft | 118 kts | 236° |
| 2026-04-21 09:16 | 40.91137 | 9.54193 | 242 ft | 117 kts | 236° |
| 2026-04-21 09:16 | 40.90674 | 9.53310 | 79 ft | 117 kts | 236° |
| 2026-04-21 09:16 | 40.90239 | 9.52475 | 35 ft | 94 kts | 235° |
| 2026-04-21 09:16 | 40.89965 | 9.51950 | 33 ft | 44 kts | 235° |
| 2026-04-21 09:17 | 40.89824 | 9.51682 | 33 ft | 34 kts | 235° |
| 2026-04-21 09:17 | 40.89692 | 9.51432 | 34 ft | 33 kts | 235° |
| 2026-04-21 09:17 | 40.89631 | 9.51207 | 34 ft | 22 kts | 277° |
| 2026-04-21 09:17 | 40.89707 | 9.51110 | 34 ft | 14 kts | 4° |
| 2026-04-21 09:18 | 40.89767 | 9.51185 | 33 ft | 13 kts | 56° |
| 2026-04-21 09:18 | 40.89820 | 9.51286 | 34 ft | 14 kts | 55° |
| 2026-04-21 09:18 | 40.89877 | 9.51393 | 34 ft | 15 kts | 54° |
| 2026-04-21 09:18 | 40.89935 | 9.51494 | 34 ft | 12 kts | 39° |
| 2026-04-21 09:19 | 40.90009 | 9.51512 | 33 ft | 10 kts | 346° |
| 2026-04-21 09:19 | 40.90047 | 9.51482 | 34 ft | 4 kts | 325° |
| 2026-04-21 09:19 | 40.90073 | 9.51473 | 34 ft | 4 kts | 12° |
| 2026-04-21 09:19 | 40.90089 | 9.51505 | 33 ft | 5 kts | 59° |
| 2026-04-21 09:20 | 40.90111 | 9.51550 | 34 ft | 7 kts | 56° |
| 2026-04-21 09:20 | 40.90137 | 9.51602 | 34 ft | 4 kts | 54° |
| 2026-04-21 09:20 | 40.90162 | 9.51611 | 34 ft | 4 kts | 336° |
| 2026-04-21 09:20 | 40.90189 | 9.51585 | 33 ft | 4 kts | 324° |
| 2026-04-21 09:21 | 40.90202 | 9.51573 | 34 ft | 1 kts | 325° |
| 2026-04-21 09:21 | 40.90203 | 9.51572 | 34 ft | 0 kts | 325° |